Time;durP1;ratioP1;P1;durP2;ratioP2;P2;SDS_P1;SDS_P2;PMS_P1;PMS_P2;Temp;Humidity;BMP_temperature;BMP_pressure;BME280_temperature;BME280_humidity;BME280_pressure;Samples;Min_cycle;Max_cycle;Signal;HPM_P1;HPM_P2
2023/05/31 00:02:22;;;;;;;1999.90;999.90;;;13.20;88.50;;;;;;6314275;22;20043;-76
2023/05/31 00:04:47;;;;;;;1999.90;999.90;;;13.20;90.90;;;;;;6287393;22;20019;-76
2023/05/31 00:07:13;;;;;;;1999.90;999.90;;;13.10;90.60;;;;;;6287414;22;20015;-77
2023/05/31 00:09:38;;;;;;;1999.90;999.90;;;13.00;91.30;;;;;;6314490;22;20018;-77
2023/05/31 00:12:04;;;;;;;1999.90;999.90;;;13.00;91.10;;;;;;6285171;22;20007;-75
2023/05/31 00:14:30;;;;;;;1999.90;999.90;;;12.90;91.30;;;;;;6315212;22;20003;-77
2023/05/31 00:16:55;;;;;;;1999.90;999.90;;;12.80;91.80;;;;;;6314680;22;20004;-77
2023/05/31 00:19:20;;;;;;;1999.90;999.90;;;12.80;91.90;;;;;;6314912;22;20015;-76
2023/05/31 00:21:46;;;;;;;1999.90;999.90;;;12.70;91.30;;;;;;6313548;22;20440;-76
2023/05/31 00:24:12;;;;;;;1999.90;999.90;;;12.70;91.40;;;;;;6314585;22;20031;-76
2023/05/31 00:26:38;;;;;;;1999.90;999.90;;;12.60;91.40;;;;;;6314509;22;20093;-76
2023/05/31 00:29:04;;;;;;;1999.90;999.90;;;12.50;92.20;;;;;;6314452;22;20523;-76
2023/05/31 00:31:29;;;;;;;1999.90;999.90;;;12.50;92.80;;;;;;6313963;22;20324;-75
2023/05/31 00:33:56;;;;;;;1999.90;999.90;;;12.40;92.60;;;;;;6314414;22;19999;-76
2023/05/31 00:36:22;;;;;;;1999.90;999.90;;;12.40;92.70;;;;;;6314255;22;20034;-76
2023/05/31 00:38:48;;;;;;;1999.90;999.90;;;12.40;93.30;;;;;;6314349;22;20037;-76
2023/05/31 00:41:13;;;;;;;1999.90;999.90;;;12.30;93.30;;;;;;6314075;22;20011;-76
2023/05/31 00:43:39;;;;;;;1999.90;999.90;;;12.20;93.80;;;;;;6314690;22;20058;-76
2023/05/31 00:46:06;;;;;;;1999.90;999.90;;;12.20;93.60;;;;;;6314415;22;20015;-76
2023/05/31 00:48:32;;;;;;;1999.90;999.90;;;12.20;93.00;;;;;;6314425;22;20340;-76
2023/05/31 00:50:57;;;;;;;1999.90;999.90;;;12.20;93.30;;;;;;6286392;22;20004;-75
2023/05/31 00:53:23;;;;;;;1999.90;999.90;;;12.20;93.60;;;;;;6314488;22;20012;-76
2023/05/31 00:55:50;;;;;;;1999.90;999.90;;;12.30;94.20;;;;;;6314504;22;20014;-76
2023/05/31 00:58:16;;;;;;;1999.90;999.90;;;12.20;93.20;;;;;;6314095;22;20061;-76
2023/05/31 01:00:42;;;;;;;1999.90;999.90;;;12.20;93.80;;;;;;6314035;22;20031;-76
2023/05/31 01:03:08;;;;;;;1999.90;999.90;;;12.20;94.10;;;;;;6314156;22;20015;-76
2023/05/31 01:05:35;;;;;;;1999.90;999.90;;;12.20;94.60;;;;;;6314346;22;20077;-76
2023/05/31 01:08:01;;;;;;;1999.90;999.90;;;12.10;93.60;;;;;;6286631;22;20019;-76
2023/05/31 01:10:26;;;;;;;1999.90;999.90;;;12.10;93.70;;;;;;6313999;22;20008;-76
2023/05/31 01:12:55;;;;;;;1999.90;999.90;;;12.10;94.60;;;;;;6286425;22;20007;-76
2023/05/31 01:15:27;;;;;;;1999.90;999.90;;;12.10;95.00;;;;;;6314521;22;20011;-76
2023/05/31 01:18:09;;;;;;;1999.90;999.90;;;12.10;94.80;;;;;;6314404;22;20394;-76
2023/05/31 01:20:35;;;;;;;1999.90;999.90;;;12.00;93.80;;;;;;6285814;22;20015;-76
2023/05/31 01:23:04;;;;;;;1999.90;999.90;;;12.00;95.10;;;;;;6286125;22;20008;-76
2023/05/31 01:25:47;;;;;;;1999.90;999.90;;;12.00;94.50;;;;;;6314415;22;20062;-76
2023/05/31 01:28:15;;;;;;;1999.90;999.90;;;11.90;94.80;;;;;;6286784;22;20020;-76
2023/05/31 01:30:40;;;;;;;1999.90;999.90;;;12.00;95.10;;;;;;6312934;22;20409;-76
2023/05/31 01:33:10;;;;;;;1999.90;999.90;;;12.00;95.50;;;;;;6314161;22;20091;-76
2023/05/31 01:35:36;;;;;;;1999.90;999.90;;;12.00;93.80;;;;;;6314316;22;20004;-76
2023/05/31 01:38:02;;;;;;;1999.90;999.90;;;11.90;94.70;;;;;;6314156;22;20016;-76
2023/05/31 01:40:27;;;;;;;1999.90;999.90;;;11.80;94.50;;;;;;6286622;22;20083;-76
2023/05/31 01:42:53;;;;;;;1999.90;999.90;;;11.80;94.90;;;;;;6286262;22;20074;-76
2023/05/31 01:45:20;;;;;;;1999.90;999.90;;;11.70;94.00;;;;;;6286885;22;20010;-76
2023/05/31 01:47:48;;;;;;;1999.90;999.90;;;11.70;94.10;;;;;;6286560;22;20027;-75
2023/05/31 01:50:14;;;;;;;1999.90;999.90;;;11.60;94.00;;;;;;6286760;22;20012;-76
2023/05/31 01:52:40;;;;;;;1999.90;999.90;;;11.70;93.00;;;;;;6314793;22;20030;-76
2023/05/31 01:55:07;;;;;;;1999.90;999.90;;;11.80;92.50;;;;;;6315405;22;20440;-75
2023/05/31 01:57:37;;;;;;;1999.90;999.90;;;11.80;92.90;;;;;;6288201;22;20058;-75
2023/05/31 02:00:06;;;;;;;1999.90;999.90;;;11.80;93.50;;;;;;6314402;22;20004;-76
2023/05/31 02:02:33;;;;;;;1999.90;999.90;;;11.80;93.00;;;;;;6313814;22;20007;-76
2023/05/31 02:05:11;;;;;;;1999.90;999.90;;;11.80;93.40;;;;;;6286384;22;20078;-76
2023/05/31 02:07:37;;;;;;;1999.90;999.90;;;11.70;94.00;;;;;;6314274;22;20014;-76
2023/05/31 02:10:03;;;;;;;1999.90;999.90;;;11.80;94.80;;;;;;6314210;22;20007;-76
2023/05/31 02:12:29;;;;;;;1999.90;999.90;;;11.70;93.40;;;;;;6286040;22;20130;-76
2023/05/31 02:14:54;;;;;;;1999.90;999.90;;;11.70;93.40;;;;;;6314098;22;20035;-76
2023/05/31 02:17:23;;;;;;;1999.90;999.90;;;11.80;92.70;;;;;;6314008;22;20008;-76
2023/05/31 02:19:51;;;;;;;1999.90;999.90;;;11.80;92.40;;;;;;6313363;22;20007;-76
2023/05/31 02:22:17;;;;;;;1999.90;999.90;;;11.90;92.10;;;;;;6313616;22;20019;-76
2023/05/31 02:24:42;;;;;;;1999.90;999.90;;;11.90;92.70;;;;;;6286561;22;20391;-76
2023/05/31 02:27:08;;;;;;;1999.90;999.90;;;12.00;92.60;;;;;;6313806;22;20015;-76
2023/05/31 02:29:33;;;;;;;1999.90;999.90;;;12.00;93.20;;;;;;6313233;22;20007;-76
2023/05/31 02:31:59;;;;;;;1999.90;999.90;;;11.90;94.00;;;;;;6285924;22;20513;-76
2023/05/31 02:34:26;;;;;;;1999.90;999.90;;;11.90;93.00;;;;;;6313983;22;20558;-75
2023/05/31 02:36:52;;;;;;;1999.90;999.90;;;11.90;94.80;;;;;;6313780;22;20011;-76
2023/05/31 02:39:18;;;;;;;1999.90;999.90;;;11.90;94.80;;;;;;6313914;22;20439;-76
2023/05/31 02:41:43;;;;;;;1999.90;999.90;;;11.80;94.00;;;;;;6313421;22;20332;-76
2023/05/31 02:44:09;;;;;;;1999.90;999.90;;;11.70;93.80;;;;;;6313923;22;20007;-76
2023/05/31 02:46:35;;;;;;;1999.90;999.90;;;11.70;94.80;;;;;;6313787;22;20077;-76
2023/05/31 02:49:01;;;;;;;1999.90;999.90;;;11.60;95.20;;;;;;6312951;22;20069;-76
2023/05/31 02:51:26;;;;;;;1999.90;999.90;;;11.50;95.10;;;;;;6313411;22;20049;-76
2023/05/31 02:53:52;;;;;;;1999.90;999.90;;;11.40;94.40;;;;;;6313616;22;20121;-76
2023/05/31 02:56:18;;;;;;;1999.90;999.90;;;11.40;94.60;;;;;;6286093;22;20049;-76
2023/05/31 02:58:44;;;;;;;1999.90;999.90;;;11.40;94.90;;;;;;6313771;22;20428;-76
2023/05/31 03:01:10;;;;;;;1999.90;999.90;;;11.30;95.40;;;;;;6314180;22;20010;-76
2023/05/31 03:03:35;;;;;;;1999.90;999.90;;;11.20;95.20;;;;;;6287292;22;20019;-76
2023/05/31 03:06:01;;;;;;;1999.90;999.90;;;11.20;96.00;;;;;;6286869;22;23780;-75
2023/05/31 03:08:27;;;;;;;1999.90;999.90;;;11.10;95.90;;;;;;6314366;22;20047;-76
2023/05/31 03:10:52;;;;;;;1999.90;999.90;;;11.20;95.20;;;;;;6314604;22;20000;-75
2023/05/31 03:13:18;;;;;;;1999.90;999.90;;;11.20;95.50;;;;;;6315096;22;20066;-76
2023/05/31 03:15:44;;;;;;;1999.90;999.90;;;11.20;96.60;;;;;;6287264;22;20062;-76
2023/05/31 03:18:10;;;;;;;1999.90;999.90;;;11.20;95.60;;;;;;6314599;22;20007;-75
2023/05/31 03:20:35;;;;;;;1999.90;999.90;;;11.20;96.30;;;;;;6314402;22;20379;-76
2023/05/31 03:23:01;;;;;;;1999.90;999.90;;;11.10;95.40;;;;;;6314000;22;20031;-75
2023/05/31 03:25:27;;;;;;;1999.90;999.90;;;11.10;96.60;;;;;;6287352;22;20368;-76
2023/05/31 03:27:52;;;;;;;1999.90;999.90;;;11.10;96.10;;;;;;6314689;22;20007;-75
2023/05/31 03:30:18;;;;;;;1999.90;999.90;;;11.10;97.10;;;;;;6314286;22;23214;-76
2023/05/31 03:32:43;;;;;;;1999.90;999.90;;;11.00;96.30;;;;;;6314484;22;20007;-76
2023/05/31 03:35:09;;;;;;;1999.90;999.90;;;11.00;96.90;;;;;;6314826;22;20012;-75
2023/05/31 03:37:34;;;;;;;1999.90;999.90;;;11.00;95.90;;;;;;6287278;22;20088;-75
2023/05/31 03:40:00;;;;;;;1999.90;999.90;;;11.00;96.10;;;;;;6314528;22;20008;-75
2023/05/31 03:42:25;;;;;;;1999.90;999.90;;;11.00;96.20;;;;;;6314403;22;20085;-76
2023/05/31 03:44:51;;;;;;;1999.90;999.90;;;11.00;97.10;;;;;;6287216;22;20011;-76
2023/05/31 03:47:17;;;;;;;1999.90;999.90;;;11.10;97.50;;;;;;6314713;22;20007;-76
2023/05/31 03:49:42;;;;;;;1999.90;999.90;;;11.00;97.30;;;;;;6314698;22;20355;-76
2023/05/31 03:52:12;;;;;;;1999.90;999.90;;;11.10;97.30;;;;;;6314582;22;19999;-76
2023/05/31 03:54:38;;;;;;;1999.90;999.90;;;11.10;96.70;;;;;;6314989;22;20387;-76
2023/05/31 03:57:04;;;;;;;1999.90;999.90;;;11.20;97.40;;;;;;6314742;22;20011;-76
2023/05/31 03:59:30;;;;;;;1999.90;999.90;;;11.20;97.80;;;;;;6314265;22;20011;-76
2023/05/31 04:01:55;;;;;;;1999.90;999.90;;;11.20;97.90;;;;;;6314385;22;20004;-75
2023/05/31 04:04:21;;;;;;;1999.90;999.90;;;11.30;97.80;;;;;;6286560;22;24834;-76
2023/05/31 04:06:46;;;;;;;1999.90;999.90;;;11.30;97.80;;;;;;6314605;22;20007;-76
2023/05/31 04:09:12;;;;;;;1999.90;999.90;;;11.30;98.40;;;;;;6314375;22;20458;-76
2023/05/31 04:11:38;;;;;;;1999.90;999.90;;;11.20;97.70;;;;;;6313978;22;20003;-76
2023/05/31 04:14:03;;;;;;;1999.90;999.90;;;11.20;97.90;;;;;;6314654;22;20065;-76
2023/05/31 04:16:29;;;;;;;1999.90;999.90;;;11.30;99.20;;;;;;6286960;22;20432;-75
2023/05/31 04:18:54;;;;;;;1999.90;999.90;;;11.30;98.40;;;;;;6286775;22;20012;-76
2023/05/31 04:21:20;;;;;;;1999.90;999.90;;;11.30;97.90;;;;;;6314078;22;20033;-75
2023/05/31 04:23:46;;;;;;;1999.90;999.90;;;11.20;97.40;;;;;;6314737;22;20012;-76
2023/05/31 04:26:16;;;;;;;1999.90;999.90;;;11.10;97.60;;;;;;6314587;22;20335;-76
2023/05/31 04:28:42;;;;;;;1999.90;999.90;;;11.10;97.40;;;;;;6314282;22;20043;-76
2023/05/31 04:31:08;;;;;;;1999.90;999.90;;;11.10;98.00;;;;;;6286504;22;20004;-76
2023/05/31 04:33:35;;;;;;;1999.90;999.90;;;11.20;96.90;;;;;;6314267;22;20008;-76
2023/05/31 04:36:03;;;;;;;1999.90;999.90;;;11.20;97.90;;;;;;6286937;22;20059;-76
2023/05/31 04:38:29;;;;;;;1999.90;999.90;;;11.30;97.00;;;;;;6314404;22;20011;-75
2023/05/31 04:40:57;;;;;;;1999.90;999.90;;;11.40;96.30;;;;;;6313971;22;20000;-75
2023/05/31 04:43:25;;;;;;;1999.90;999.90;;;11.40;95.90;;;;;;6286725;22;20460;-76
2023/05/31 04:45:51;;;;;;;1999.90;999.90;;;11.50;96.00;;;;;;6314335;22;20085;-75
2023/05/31 04:48:17;;;;;;;1999.90;999.90;;;11.60;95.90;;;;;;6314195;22;20019;-76
2023/05/31 04:50:43;;;;;;;1999.90;999.90;;;11.70;95.40;;;;;;6286992;22;20387;-75
2023/05/31 04:53:10;;;;;;;1999.90;999.90;;;11.90;94.20;;;;;;6286453;22;20016;-75
2023/05/31 04:55:36;;;;;;;1999.90;999.90;;;12.10;93.80;;;;;;6286654;22;20058;-75
2023/05/31 04:58:01;;;;;;;1999.90;999.90;;;12.30;93.70;;;;;;6314352;22;20467;-75
2023/05/31 05:00:27;;;;;;;1999.90;999.90;;;12.30;93.10;;;;;;6313845;22;20000;-76
2023/05/31 05:02:52;;;;;;;1999.90;999.90;;;12.40;92.90;;;;;;6286408;22;20011;-76
2023/05/31 05:05:18;;;;;;;1999.90;999.90;;;12.50;92.80;;;;;;6314474;22;20045;-76
2023/05/31 05:07:44;;;;;;;1999.90;999.90;;;12.60;92.60;;;;;;6314459;22;20466;-76
2023/05/31 05:10:32;;;;;;;1999.90;999.90;;;12.70;92.50;;;;;;6314193;22;20368;-75
2023/05/31 05:12:58;;;;;;;1999.90;999.90;;;12.90;92.60;;;;;;6314242;22;20042;-76
2023/05/31 05:15:23;;;;;;;1999.90;999.90;;;13.00;92.20;;;;;;6286781;22;20344;-76
2023/05/31 05:17:49;;;;;;;1999.90;999.90;;;13.10;92.00;;;;;;6286620;22;20057;-76
2023/05/31 05:20:14;;;;;;;1999.90;999.90;;;13.20;92.00;;;;;;6314091;22;20065;-75
2023/05/31 05:22:42;;;;;;;1999.90;999.90;;;13.30;92.60;;;;;;6313537;22;20011;-76
2023/05/31 05:25:08;;;;;;;1999.90;999.90;;;13.40;91.60;;;;;;6314313;22;20004;-76
2023/05/31 05:27:33;;;;;;;1999.90;999.90;;;13.40;91.60;;;;;;6314400;22;20007;-76
2023/05/31 05:29:59;;;;;;;1999.90;999.90;;;13.50;92.00;;;;;;6313483;22;20322;-76
2023/05/31 05:32:25;;;;;;;1999.90;999.90;;;13.60;91.40;;;;;;6313642;22;21520;-76
2023/05/31 05:34:50;;;;;;;1999.90;999.90;;;13.60;91.50;;;;;;6287616;22;20014;-76
2023/05/31 05:37:16;;;;;;;1999.90;999.90;;;13.70;91.70;;;;;;6314601;22;20011;-77
2023/05/31 05:39:41;;;;;;;1999.90;999.90;;;13.80;92.20;;;;;;6313635;22;20008;-76
2023/05/31 05:42:07;;;;;;;1999.90;999.90;;;13.90;91.90;;;;;;6313859;22;20008;-76
2023/05/31 05:44:33;;;;;;;1999.90;999.90;;;13.90;91.20;;;;;;6313777;22;20015;-76
2023/05/31 05:46:59;;;;;;;1999.90;999.90;;;14.00;91.80;;;;;;6286608;22;20404;-76
2023/05/31 05:49:25;;;;;;;1999.90;999.90;;;14.10;91.10;;;;;;6314021;22;20007;-77
2023/05/31 05:51:50;;;;;;;1999.90;999.90;;;14.10;91.40;;;;;;6285323;22;20015;-77
2023/05/31 05:54:16;;;;;;;1999.90;999.90;;;14.20;91.10;;;;;;6281304;22;20003;-77
2023/05/31 05:56:41;;;;;;;1999.90;999.90;;;14.20;90.80;;;;;;6310955;22;20004;-77
2023/05/31 05:59:08;;;;;;;1999.90;999.90;;;14.30;90.40;;;;;;6287120;22;20022;-77
2023/05/31 06:01:35;;;;;;;1999.90;999.90;;;14.40;91.00;;;;;;6287243;22;20012;-78
2023/05/31 06:04:01;;;;;;;1999.90;999.90;;;14.50;89.00;;;;;;6318276;22;20011;-78
2023/05/31 06:06:26;;;;;;;1999.90;999.90;;;14.70;88.80;;;;;;6332768;22;20012;-77
2023/05/31 06:08:52;;;;;;;1999.90;999.90;;;14.80;87.30;;;;;;6339308;22;20032;-78
2023/05/31 06:11:18;;;;;;;1999.90;999.90;;;14.90;87.40;;;;;;6339985;22;19991;-77
2023/05/31 06:13:44;;;;;;;1999.90;999.90;;;15.00;87.70;;;;;;6330242;22;20058;-77
2023/05/31 06:16:10;;;;;;;1999.90;999.90;;;15.10;86.90;;;;;;6314660;22;20352;-77
2023/05/31 06:18:35;;;;;;;1999.90;999.90;;;15.20;87.40;;;;;;6315349;22;20003;-77
2023/05/31 06:21:01;;;;;;;1999.90;999.90;;;15.30;87.20;;;;;;6314279;22;20008;-75
2023/05/31 06:23:26;;;;;;;1999.90;999.90;;;15.40;86.00;;;;;;6286640;22;20387;-76
2023/05/31 06:25:52;;;;;;;1999.90;999.90;;;15.50;85.90;;;;;;6286767;22;20011;-78
2023/05/31 06:28:18;;;;;;;1999.90;999.90;;;15.50;86.20;;;;;;6314723;22;20436;-82
2023/05/31 06:30:44;;;;;;;1999.90;999.90;;;15.60;85.20;;;;;;6286165;22;20008;-75
2023/05/31 06:33:10;;;;;;;1999.90;999.90;;;15.70;85.30;;;;;;6287120;22;20008;-76
2023/05/31 06:35:36;;;;;;;1999.90;999.90;;;15.80;85.30;;;;;;6313580;22;20436;-75
2023/05/31 06:38:03;;;;;;;1999.90;999.90;;;15.90;84.70;;;;;;6286420;22;20007;-77
2023/05/31 06:40:29;;;;;;;1999.90;999.90;;;16.10;84.70;;;;;;6285959;22;20709;-76
2023/05/31 06:42:55;;;;;;;1999.90;999.90;;;16.20;84.40;;;;;;6313837;22;20008;-83
2023/05/31 06:45:20;;;;;;;1999.90;999.90;;;16.30;83.90;;;;;;6286402;22;20011;-78
2023/05/31 06:47:46;;;;;;;1999.90;999.90;;;16.40;83.50;;;;;;6313976;22;20011;-78
2023/05/31 06:50:12;;;;;;;1999.90;999.90;;;16.60;83.20;;;;;;6313631;22;20092;-78
2023/05/31 06:52:39;;;;;;;1999.90;999.90;;;16.80;82.20;;;;;;6313509;22;20006;-78
2023/05/31 06:55:05;;;;;;;1999.90;999.90;;;16.90;81.90;;;;;;6313762;22;20050;-78
2023/05/31 06:57:31;;;;;;;1999.90;999.90;;;17.00;82.20;;;;;;6312723;22;20439;-78
2023/05/31 06:59:57;;;;;;;1999.90;999.90;;;17.10;81.90;;;;;;6285513;22;20011;-79
2023/05/31 07:02:22;;;;;;;1999.90;999.90;;;17.40;81.40;;;;;;6285059;22;20016;-78
2023/05/31 07:04:48;;;;;;;1999.90;999.90;;;17.50;80.50;;;;;;6313584;22;20383;-78
2023/05/31 07:07:14;;;;;;;1999.90;999.90;;;17.70;80.60;;;;;;6285763;22;20015;-79
2023/05/31 07:09:39;;;;;;;1999.90;999.90;;;18.00;79.90;;;;;;6285698;22;20442;-79
2023/05/31 07:12:05;;;;;;;1999.90;999.90;;;18.30;79.20;;;;;;6313375;22;20008;-79
2023/05/31 07:14:31;;;;;;;1999.90;999.90;;;18.30;77.20;;;;;;6313511;22;20007;-76
2023/05/31 07:16:56;;;;;;;1999.90;999.90;;;18.50;77.70;;;;;;6313456;22;20015;-77
2023/05/31 07:19:22;;;;;;;1999.90;999.90;;;18.80;77.80;;;;;;6285751;22;20510;-79
2023/05/31 07:21:47;;;;;;;1999.90;999.90;;;19.10;77.20;;;;;;6285994;22;20084;-77
2023/05/31 07:24:13;;;;;;;1999.90;999.90;;;19.30;75.50;;;;;;6288279;22;20008;-78
2023/05/31 07:26:38;;;;;;;1999.90;999.90;;;19.40;74.40;;;;;;6285625;22;20003;-79
2023/05/31 07:29:04;;;;;;;1999.90;999.90;;;19.60;75.70;;;;;;6312729;22;21415;-78
2023/05/31 07:31:30;;;;;;;1999.90;999.90;;;19.80;73.90;;;;;;6313001;22;20000;-78
2023/05/31 07:33:55;;;;;;;1999.90;999.90;;;20.00;74.70;;;;;;6285422;22;20003;-78
2023/05/31 07:36:24;;;;;;;1999.90;999.90;;;20.20;72.70;;;;;;6313295;22;20444;-78
2023/05/31 07:38:51;;;;;;;1999.90;999.90;;;20.10;73.90;;;;;;6313813;22;20012;-78
2023/05/31 07:41:16;;;;;;;1999.90;999.90;;;20.30;72.40;;;;;;6313564;22;20000;-78
2023/05/31 07:43:44;;;;;;;1999.90;999.90;;;20.60;72.10;;;;;;6313922;22;20004;-77
2023/05/31 07:46:10;;;;;;;1999.90;999.90;;;20.70;70.20;;;;;;6286342;22;20470;-78
2023/05/31 07:48:35;;;;;;;1999.90;999.90;;;20.90;70.70;;;;;;6314564;22;20022;-79
2023/05/31 07:51:01;;;;;;;1999.90;999.90;;;21.00;67.60;;;;;;6286658;22;20008;-78
2023/05/31 07:53:26;;;;;;;1999.90;999.90;;;21.20;67.70;;;;;;6287218;22;20011;-78
2023/05/31 07:55:52;;;;;;;1999.90;999.90;;;21.40;67.20;;;;;;6314684;22;20019;-78
2023/05/31 07:58:18;;;;;;;1999.90;999.90;;;21.70;68.90;;;;;;6314669;22;20007;-78
2023/05/31 08:00:43;;;;;;;1999.90;999.90;;;21.70;66.40;;;;;;6286679;22;20319;-78
2023/05/31 08:03:09;;;;;;;1999.90;999.90;;;21.90;64.60;;;;;;6314155;22;20481;-79
2023/05/31 08:05:35;;;;;;;1999.90;999.90;;;22.00;65.60;;;;;;6314442;22;20061;-77
2023/05/31 08:08:00;;;;;;;1999.90;999.90;;;22.10;65.20;;;;;;6314488;22;20042;-77
2023/05/31 08:10:26;;;;;;;1999.90;999.90;;;22.20;65.60;;;;;;6286884;22;20073;-78
2023/05/31 08:12:52;;;;;;;1999.90;999.90;;;22.40;64.40;;;;;;6285637;22;20003;-78
2023/05/31 08:15:17;;;;;;;1999.90;999.90;;;22.50;62.50;;;;;;6287045;22;20015;-79
2023/05/31 08:17:43;;;;;;;1999.90;999.90;;;22.50;64.30;;;;;;6286516;22;20011;-81
2023/05/31 08:20:11;;;;;;;1999.90;999.90;;;22.70;62.80;;;;;;6314374;22;20709;-77
2023/05/31 08:22:37;;;;;;;1999.90;999.90;;;22.60;62.80;;;;;;6313691;22;20004;-78
2023/05/31 08:25:03;;;;;;;1999.90;999.90;;;22.60;61.10;;;;;;6286161;22;19996;-78
2023/05/31 08:27:29;;;;;;;1999.90;999.90;;;22.70;62.50;;;;;;6285850;22;20012;-81
2023/05/31 08:29:54;;;;;;;1999.90;999.90;;;23.00;61.80;;;;;;6313814;22;20011;-78
2023/05/31 08:32:20;;;;;;;1999.90;999.90;;;23.10;60.20;;;;;;6313662;22;22014;-77
2023/05/31 08:34:46;;;;;;;1999.90;999.90;;;23.20;59.70;;;;;;6314390;22;20011;-79
2023/05/31 08:37:12;;;;;;;1999.90;999.90;;;23.30;59.50;;;;;;6314119;22;20087;-77
2023/05/31 08:39:41;;;;;;;1999.90;999.90;;;23.30;58.80;;;;;;6313790;22;20455;-78
2023/05/31 08:42:14;;;;;;;1999.90;999.90;;;23.30;58.70;;;;;;6313927;22;20392;-77
2023/05/31 08:44:41;;;;;;;1999.90;999.90;;;23.40;61.90;;;;;;6315218;22;20489;-79
2023/05/31 08:47:21;;;;;;;1999.90;999.90;;;23.80;58.50;;;;;;6286962;22;20065;-78
2023/05/31 08:49:48;;;;;;;1999.90;999.90;;;24.00;58.40;;;;;;6314046;22;20061;-78
2023/05/31 08:52:13;;;;;;;1999.90;999.90;;;23.90;58.30;;;;;;6314423;22;19999;-77
2023/05/31 08:54:40;;;;;;;1999.90;999.90;;;23.80;57.10;;;;;;6285098;22;20007;-78
2023/05/31 08:57:06;;;;;;;1999.90;999.90;;;24.00;58.20;;;;;;6314447;22;20451;-79
2023/05/31 08:59:33;;;;;;;1999.90;999.90;;;24.10;58.90;;;;;;6286903;22;20000;-79
2023/05/31 09:02:00;;;;;;;1999.90;999.90;;;24.60;56.10;;;;;;6314649;22;20066;-80
2023/05/31 09:04:26;;;;;;;1999.90;999.90;;;24.60;56.10;;;;;;6314877;22;20007;-79
2023/05/31 09:06:52;;;;;;;1999.90;999.90;;;24.30;55.60;;;;;;6287253;22;20012;-80
2023/05/31 09:09:18;;;;;;;1999.90;999.90;;;24.30;56.80;;;;;;6314499;22;20012;-79
2023/05/31 09:11:44;;;;;;;1999.90;999.90;;;24.30;56.50;;;;;;6314423;22;20007;-80
2023/05/31 09:14:10;;;;;;;1999.90;999.90;;;24.50;56.10;;;;;;6315302;22;20122;-79
2023/05/31 09:16:36;;;;;;;1999.90;999.90;;;24.50;55.80;;;;;;6315118;22;20011;-78
2023/05/31 09:19:06;;;;;;;1999.90;999.90;;;24.90;56.10;;;;;;6287458;22;20011;-78
2023/05/31 09:21:42;;;;;;;1999.90;999.90;;;24.90;56.00;;;;;;6286508;22;20008;-78
2023/05/31 09:24:08;;;;;;;1999.90;999.90;;;25.00;55.60;;;;;;6286730;22;20007;-78
2023/05/31 09:26:34;;;;;;;1999.90;999.90;;;24.90;56.10;;;;;;6286265;22;20082;-78
2023/05/31 09:29:00;;;;;;;1999.90;999.90;;;24.90;57.30;;;;;;6287037;22;20094;-80
2023/05/31 09:31:27;;;;;;;1999.90;999.90;;;25.10;54.70;;;;;;6288087;22;20030;-78
2023/05/31 09:33:56;;;;;;;1999.90;999.90;;;25.10;55.00;;;;;;6288560;22;20020;-79
2023/05/31 09:36:28;;;;;;;1999.90;999.90;;;25.20;54.50;;;;;;6288151;22;20046;-79
2023/05/31 09:39:07;;;;;;;1999.90;999.90;;;25.10;56.20;;;;;;6288109;22;20011;-79
2023/05/31 09:41:33;;;;;;;1999.90;999.90;;;25.40;55.00;;;;;;6288723;22;20340;-79
2023/05/31 09:43:58;;;;;;;1999.90;999.90;;;25.60;55.50;;;;;;6289410;22;20015;-79
2023/05/31 09:46:25;;;;;;;1999.90;999.90;;;25.50;53.80;;;;;;6288138;22;20016;-78
2023/05/31 09:49:06;;;;;;;1999.90;999.90;;;25.60;56.80;;;;;;6288224;22;20016;-79
2023/05/31 09:51:33;;;;;;;1999.90;999.90;;;25.60;54.00;;;;;;6287620;22;20003;-79
2023/05/31 09:54:09;;;;;;;1999.90;999.90;;;25.50;53.40;;;;;;6288459;22;20008;-78
2023/05/31 09:56:40;;;;;;;1999.90;999.90;;;25.60;52.00;;;;;;6288370;22;20004;-79
2023/05/31 09:59:06;;;;;;;1999.90;999.90;;;25.70;53.30;;;;;;6315553;22;20043;-78
2023/05/31 10:01:32;;;;;;;1999.90;999.90;;;25.70;56.50;;;;;;6315298;22;20515;-79
2023/05/31 10:04:03;;;;;;;1999.90;999.90;;;25.80;52.80;;;;;;6316156;22;20754;-78
2023/05/31 10:06:31;;;;;;;1999.90;999.90;;;25.80;52.50;;;;;;6289074;22;20893;-77
2023/05/31 10:08:56;;;;;;;1999.90;999.90;;;25.50;52.80;;;;;;6288434;22;20219;-78
2023/05/31 10:11:28;;;;;;;1999.90;999.90;;;25.60;54.60;;;;;;6289840;22;20770;-78
2023/05/31 10:13:59;;;;;;;1999.90;999.90;;;26.00;51.90;;;;;;6291198;22;20072;-80
2023/05/31 10:16:28;;;;;;;1999.90;999.90;;;26.10;56.20;;;;;;6317662;22;20019;-81
2023/05/31 10:19:01;;;;;;;1999.90;999.90;;;26.00;52.80;;;;;;6288504;22;20012;-79
2023/05/31 10:21:28;;;;;;;1999.90;999.90;;;26.20;51.90;;;;;;6316738;22;20475;-80
2023/05/31 10:24:08;;;;;;;1999.90;999.90;;;26.40;51.80;;;;;;6289870;22;20042;-80
2023/05/31 10:26:44;;;;;;;1999.90;999.90;;;26.00;52.20;;;;;;6290371;22;19998;-80
2023/05/31 10:29:14;;;;;;;1999.90;999.90;;;26.00;52.50;;;;;;6290305;22;20012;-80
2023/05/31 10:31:50;;;;;;;1999.90;999.90;;;26.10;53.90;;;;;;6288661;22;20011;-78
2023/05/31 10:34:20;;;;;;;1999.90;999.90;;;26.40;51.50;;;;;;6288450;22;20018;-78
2023/05/31 10:36:46;;;;;;;1999.90;999.90;;;26.30;50.90;;;;;;6316696;22;20162;-79
2023/05/31 10:39:22;;;;;;;1999.90;999.90;;;26.20;51.70;;;;;;6316599;22;20003;-79
2023/05/31 10:41:52;;;;;;;1999.90;999.90;;;26.40;51.50;;;;;;6290123;22;20443;-79
2023/05/31 10:44:26;;;;;;;1999.90;999.90;;;26.40;50.40;;;;;;6292148;22;20095;-79
2023/05/31 10:46:59;;;;;;;1999.90;999.90;;;26.70;53.90;;;;;;6318257;22;20008;-80
2023/05/31 10:49:31;;;;;;;1999.90;999.90;;;26.70;50.40;;;;;;6317343;22;20035;-79
2023/05/31 10:52:04;;;;;;;1999.90;999.90;;;26.70;50.60;;;;;;6290606;22;20391;-80
2023/05/31 10:54:32;;;;;;;1999.90;999.90;;;27.00;53.50;;;;;;6290778;22;20008;-79
2023/05/31 10:56:59;;;;;;;1999.90;999.90;;;27.00;50.10;;;;;;6318207;22;20034;-79
2023/05/31 10:59:26;;;;;;;1999.90;999.90;;;26.30;50.90;;;;;;6317793;22;20007;-78
2023/05/31 11:01:52;;;;;;;1999.90;999.90;;;26.60;53.20;;;;;;6289916;22;20015;-79
2023/05/31 11:04:26;;;;;;;1999.90;999.90;;;26.70;49.80;;;;;;6291159;22;20478;-79
2023/05/31 11:07:14;;;;;;;1999.90;999.90;;;26.60;49.20;;;;;;6290051;22;20018;-80
2023/05/31 11:09:57;;;;;;;1999.90;999.90;;;26.70;51.20;;;;;;6290802;22;20016;-80
2023/05/31 11:12:40;;;;;;;1999.90;999.90;;;27.00;51.40;;;;;;6289987;22;20015;-77
2023/05/31 11:15:13;;;;;;;1999.90;999.90;;;27.30;50.70;;;;;;6289741;22;20012;-78
2023/05/31 11:17:49;;;;;;;1999.90;999.90;;;27.50;48.90;;;;;;6289962;22;20012;-78
2023/05/31 11:20:16;;;;;;;1999.90;999.90;;;27.40;55.10;;;;;;6289841;22;20004;-79
2023/05/31 11:22:42;;;;;;;1999.90;999.90;;;27.40;48.90;;;;;;6291056;22;20082;-78
2023/05/31 11:25:09;;;;;;;1999.90;999.90;;;27.30;50.30;;;;;;6290876;22;20035;-78
2023/05/31 11:27:37;;;;;;;1999.90;999.90;;;27.50;49.30;;;;;;6289195;22;20386;-78
2023/05/31 11:30:12;;;;;;;1999.90;999.90;;;27.80;49.00;;;;;;6287878;22;20016;-79
2023/05/31 11:32:38;;;;;;;1999.90;999.90;;;27.80;48.70;;;;;;6288699;22;20010;-77
2023/05/31 11:35:15;;;;;;;1999.90;999.90;;;27.70;50.10;;;;;;6288216;22;20403;-77
2023/05/31 11:37:42;;;;;;;1999.90;999.90;;;27.80;48.70;;;;;;6287458;22;20030;-78
2023/05/31 11:40:11;;;;;;;1999.90;999.90;;;28.10;48.80;;;;;;6287612;22;20066;-78
2023/05/31 11:42:39;;;;;;;1999.90;999.90;;;27.80;48.00;;;;;;6314978;22;20336;-78
2023/05/31 11:45:07;;;;;;;1999.90;999.90;;;27.40;49.60;;;;;;6287556;22;20030;-78
2023/05/31 11:47:34;;;;;;;1999.90;999.90;;;27.70;49.00;;;;;;6315023;22;20485;-80
2023/05/31 11:50:01;;;;;;;1999.90;999.90;;;28.00;49.10;;;;;;6286920;22;20012;-84
2023/05/31 11:52:28;;;;;;;1999.90;999.90;;;28.00;52.00;;;;;;6286621;22;20418;-78
2023/05/31 11:54:56;;;;;;;1999.90;999.90;;;27.70;48.60;;;;;;6313088;22;20000;-77
2023/05/31 11:57:22;;;;;;;1999.90;999.90;;;27.60;48.10;;;;;;6314656;22;20447;-78
2023/05/31 11:59:47;;;;;;;1999.90;999.90;;;28.00;49.20;;;;;;6287118;22;20011;-77